7N0

New Orleans Downtown Heliport

New Orleans, Louisiana, USA
METAR K7N0 181256Z AUTO 13003KT 9SM -RA FEW055 SCT090 OVC110 28/26 A3011 RMK AO2 RAB32 SLP197 P0000 T02780256
Observed Flight Rules
Jun-18 @ 12:56 UTC (21 minutes ago) Visual Flight Rules
Wind Visibility Clouds Conditions
130° at 3 knots 9 miles
  • Few at 5,500' AGL
  • Scattered at 9,000' AGL
  • Overcast at 11,000' AGL
  • Light Rain
Temperatures Readings Precipitation
Current 28°C / 82°F
Dewpoint 26°C / 79°F
Humidity 89%
Altimeter 30.11" Hg
Pressure 1019.7 hPa
Elevation 0
Current Rain 0.005
METAR K7N0 181256Z AUTO 13003KT 9SM -RA FEW055 SCT090 OVC110 28/26 A3011 RMK AO2 RAB32 SLP197 P0000 T02780256
Observed Flight Rules
Jun-18 @ 12:56 UTC
(21 minutes ago)
VFR
Wind Visibility
130° at 3 knots 9 miles
Clouds
  • Few at 5,500' AGL
  • Scattered at 9,000' AGL
  • Overcast at 11,000' AGL
Conditions
  • Light Rain
Temperature Dewpoint
28°C / 82°F 26°C / 79°F
Humidity Altimeter Pressure
89% 30.11" Hg 1019.7 hPa
Current Rain
0.005